Time;durP1;ratioP1;P1;durP2;ratioP2;P2;SDS_P1;SDS_P2;PMS_P1;PMS_P2;Temp;Humidity;BMP_temperature;BMP_pressure;BME280_temperature;BME280_humidity;BME280_pressure;Samples;Min_cycle;Max_cycle;Signal;HPM_P1;HPM_P2
2024/01/06 00:01:00;;;;;;;14.27;8.68;;;7.50;99.90;;;;;;5096111;28;20472;-72
2024/01/06 00:03:26;;;;;;;16.35;10.05;;;7.50;99.90;;;;;;5096305;28;20027;-72
2024/01/06 00:05:52;;;;;;;20.77;12.23;;;7.50;99.90;;;;;;5095888;28;20024;-72
2024/01/06 00:08:17;;;;;;;16.85;10.80;;;7.60;99.90;;;;;;5095948;28;20051;-72
2024/01/06 00:10:43;;;;;;;12.73;6.90;;;7.60;99.90;;;;;;5095758;28;20509;-72
2024/01/06 00:13:09;;;;;;;8.15;3.40;;;7.70;99.90;;;;;;5095993;28;20089;-72
2024/01/06 00:15:35;;;;;;;7.88;2.38;;;7.80;99.90;;;;;;5095771;28;20032;-72
2024/01/06 00:18:01;;;;;;;7.57;2.00;;;7.90;99.90;;;;;;5096027;28;20490;-72
2024/01/06 00:20:26;;;;;;;10.02;1.73;;;7.90;99.90;;;;;;5095459;28;20535;-72
2024/01/06 00:22:52;;;;;;;8.55;1.80;;;8.00;99.90;;;;;;5095723;28;20036;-72
2024/01/06 00:25:17;;;;;;;7.53;1.80;;;8.00;99.90;;;;;;5095642;28;20031;-72
2024/01/06 00:27:43;;;;;;;7.13;1.90;;;8.00;99.90;;;;;;5095662;28;20493;-72
2024/01/06 00:30:09;;;;;;;7.50;2.00;;;8.00;99.90;;;;;;5095564;28;20119;-72
2024/01/06 00:32:34;;;;;;;4.63;1.73;;;8.10;99.90;;;;;;5095581;28;20085;-72
2024/01/06 00:35:00;;;;;;;3.55;1.30;;;8.10;99.90;;;;;;5094985;28;20032;-72
2024/01/06 00:37:26;;;;;;;4.60;1.60;;;8.20;99.90;;;;;;5095465;28;20043;-72
2024/01/06 00:39:51;;;;;;;3.28;1.50;;;8.50;99.90;;;;;;5095856;28;20020;-72
2024/01/06 00:42:17;;;;;;;4.28;1.83;;;8.60;99.90;;;;;;5095217;28;20036;-72
2024/01/06 00:44:45;;;;;;;4.88;1.60;;;8.80;99.90;;;;;;5095009;28;20024;-72
2024/01/06 00:47:11;;;;;;;5.60;1.73;;;8.90;99.90;;;;;;5095147;28;20395;-71
2024/01/06 00:49:36;;;;;;;3.95;1.70;;;9.00;99.90;;;;;;5094804;28;20016;-72
2024/01/06 00:52:02;;;;;;;5.15;1.80;;;9.20;99.90;;;;;;5095107;28;20059;-72
2024/01/06 00:54:28;;;;;;;3.72;1.85;;;9.20;99.90;;;;;;5095126;28;20035;-72
2024/01/06 00:56:53;;;;;;;5.10;1.67;;;9.10;99.90;;;;;;5094539;28;20389;-72
2024/01/06 00:59:19;;;;;;;6.28;1.95;;;8.90;99.90;;;;;;5094567;28;20058;-72
2024/01/06 01:01:44;;;;;;;3.00;1.88;;;8.70;99.90;;;;;;5095435;28;20023;-72
2024/01/06 01:04:10;;;;;;;4.22;2.22;;;8.50;99.90;;;;;;5094601;28;20418;-72
2024/01/06 01:06:37;;;;;;;5.93;2.00;;;8.50;99.90;;;;;;5094859;28;20024;-72
2024/01/06 01:09:04;;;;;;;3.40;1.70;;;8.40;99.90;;;;;;5095212;28;20028;-72
2024/01/06 01:11:30;;;;;;;3.33;1.80;;;8.30;99.90;;;;;;5094595;28;20101;-72
2024/01/06 01:13:56;;;;;;;3.83;1.88;;;8.20;99.90;;;;;;5095132;28;20057;-72
2024/01/06 01:16:21;;;;;;;3.90;1.90;;;8.20;99.90;;;;;;5094334;28;20427;-72
2024/01/06 01:18:47;;;;;;;3.90;2.25;;;8.10;99.90;;;;;;5094212;28;20535;-72
2024/01/06 01:21:12;;;;;;;4.95;2.20;;;8.00;99.90;;;;;;5095103;28;20055;-72
2024/01/06 01:23:38;;;;;;;3.45;2.20;;;7.90;99.90;;;;;;5094539;28;20020;-72
2024/01/06 01:26:04;;;;;;;4.30;1.90;;;7.90;99.90;;;;;;5094562;28;20406;-72
2024/01/06 01:28:30;;;;;;;5.25;2.47;;;7.90;99.90;;;;;;5094456;28;20101;-72
2024/01/06 01:30:55;;;;;;;6.70;3.60;;;7.90;99.90;;;;;;5094192;28;20043;-72
2024/01/06 01:33:21;;;;;;;6.68;3.10;;;7.80;99.90;;;;;;5094047;28;20020;-72
2024/01/06 01:35:47;;;;;;;5.43;3.33;;;7.70;99.90;;;;;;5094378;28;20390;-72
2024/01/06 01:38:12;;;;;;;5.57;3.38;;;7.70;99.90;;;;;;5094258;28;20016;-72
2024/01/06 01:40:38;;;;;;;4.68;3.42;;;7.60;99.90;;;;;;5094093;28;20036;-73
2024/01/06 01:43:03;;;;;;;5.28;3.78;;;7.50;99.90;;;;;;5094626;28;20028;-72
2024/01/06 01:45:29;;;;;;;4.70;3.10;;;7.50;99.90;;;;;;5093913;28;20056;-72
2024/01/06 01:47:55;;;;;;;5.45;3.35;;;7.50;99.90;;;;;;5093842;28;20051;-72
2024/01/06 01:50:22;;;;;;;4.20;3.10;;;7.50;99.90;;;;;;5094342;28;20028;-72
2024/01/06 01:52:49;;;;;;;3.88;2.47;;;7.40;99.90;;;;;;5093610;28;20545;-72
2024/01/06 01:55:15;;;;;;;4.90;2.78;;;7.40;99.90;;;;;;5094331;28;20397;-72
2024/01/06 01:57:41;;;;;;;4.65;2.45;;;7.40;99.90;;;;;;5093806;28;20032;-72
2024/01/06 02:00:07;;;;;;;4.20;2.50;;;7.40;99.90;;;;;;5093864;28;20494;-73
2024/01/06 02:02:33;;;;;;;4.65;2.55;;;7.40;99.90;;;;;;5093585;28;20502;-73
2024/01/06 02:04:59;;;;;;;6.57;3.00;;;7.40;99.90;;;;;;5094057;28;20089;-73
2024/01/06 02:07:25;;;;;;;6.53;3.45;;;7.40;99.90;;;;;;5093250;28;20028;-73
2024/01/06 02:09:51;;;;;;;4.05;2.67;;;7.30;99.90;;;;;;5094047;28;20148;-72
2024/01/06 02:12:16;;;;;;;5.93;2.70;;;7.40;99.90;;;;;;5093434;28;20482;-73
2024/01/06 02:14:43;;;;;;;4.82;2.15;;;7.50;99.90;;;;;;5093474;28;20020;-73
2024/01/06 02:17:08;;;;;;;5.18;2.10;;;7.60;99.90;;;;;;5093247;28;20031;-72
2024/01/06 02:19:34;;;;;;;6.40;2.20;;;7.70;99.90;;;;;;5093292;28;20028;-72
2024/01/06 02:22:00;;;;;;;5.95;2.50;;;7.70;99.90;;;;;;5093803;28;20031;-72
2024/01/06 02:24:26;;;;;;;9.40;3.30;;;7.80;99.90;;;;;;5093364;28;20028;-73
2024/01/06 02:26:51;;;;;;;6.18;2.80;;;7.80;99.90;;;;;;5093239;28;20028;-72
2024/01/06 02:29:17;;;;;;;5.47;2.63;;;7.70;99.90;;;;;;5093255;28;20023;-72
2024/01/06 02:31:43;;;;;;;8.70;3.20;;;7.80;99.90;;;;;;5093123;28;20119;-72
2024/01/06 02:34:09;;;;;;;10.25;3.45;;;7.80;99.90;;;;;;5093098;28;20020;-72
2024/01/06 02:36:35;;;;;;;8.30;3.28;;;8.00;99.90;;;;;;5093237;28;20035;-72
2024/01/06 02:39:01;;;;;;;6.72;3.25;;;8.20;99.90;;;;;;5093763;28;20028;-72
2024/01/06 02:41:26;;;;;;;6.72;2.90;;;8.40;99.90;;;;;;5092697;28;20031;-72
2024/01/06 02:43:54;;;;;;;8.38;3.03;;;8.50;99.90;;;;;;5093013;28;20024;-72
2024/01/06 02:46:20;;;;;;;10.20;3.28;;;8.60;99.90;;;;;;5092353;28;20052;-72
2024/01/06 02:48:45;;;;;;;11.02;3.33;;;8.60;99.90;;;;;;5093212;28;20042;-72
2024/01/06 02:51:12;;;;;;;8.65;2.72;;;8.70;99.90;;;;;;5092983;28;20036;-72
2024/01/06 02:53:38;;;;;;;9.45;3.03;;;8.80;99.90;;;;;;5092695;28;20020;-73
2024/01/06 02:56:04;;;;;;;10.80;3.58;;;8.80;99.90;;;;;;5093032;28;20081;-73
2024/01/06 02:58:29;;;;;;;9.43;3.10;;;8.70;99.90;;;;;;5092885;28;20059;-73
2024/01/06 03:00:55;;;;;;;6.25;2.58;;;8.70;99.90;;;;;;5092450;28;20035;-72
2024/01/06 03:03:21;;;;;;;10.48;2.53;;;8.60;99.90;;;;;;5092758;28;20016;-72
2024/01/06 03:05:48;;;;;;;9.70;2.58;;;8.60;99.90;;;;;;5092555;28;20469;-72
2024/01/06 03:08:15;;;;;;;8.13;2.13;;;8.50;99.90;;;;;;5093022;28;20020;-72
2024/01/06 03:10:41;;;;;;;7.45;2.40;;;8.40;99.90;;;;;;5092344;28;20478;-72
2024/01/06 03:13:07;;;;;;;8.85;2.25;;;8.40;99.90;;;;;;5092542;28;20081;-72
2024/01/06 03:15:32;;;;;;;9.40;2.35;;;8.40;99.90;;;;;;5092397;28;20136;-72
2024/01/06 03:17:58;;;;;;;4.93;1.80;;;8.30;99.90;;;;;;5092430;28;20039;-72
2024/01/06 03:20:24;;;;;;;7.10;2.53;;;8.30;99.90;;;;;;5092185;28;20028;-73
2024/01/06 03:22:49;;;;;;;9.32;3.03;;;8.20;99.90;;;;;;5092507;28;20035;-72
2024/01/06 03:25:15;;;;;;;7.95;2.60;;;8.20;99.90;;;;;;5092350;28;20032;-72
2024/01/06 03:27:41;;;;;;;9.80;3.05;;;8.20;99.90;;;;;;5092370;28;20067;-73
2024/01/06 03:30:07;;;;;;;8.65;2.92;;;8.20;99.90;;;;;;5090599;28;20032;-73
2024/01/06 03:32:32;;;;;;;7.78;3.35;;;8.10;99.90;;;;;;5092565;28;20028;-73
2024/01/06 03:34:58;;;;;;;7.80;3.70;;;8.10;99.90;;;;;;5092373;28;20028;-72
2024/01/06 03:37:24;;;;;;;11.90;5.10;;;8.10;99.90;;;;;;5092135;28;20020;-72
2024/01/06 03:39:49;;;;;;;13.52;5.65;;;8.10;99.90;;;;;;5092204;28;20390;-73
2024/01/06 03:42:15;;;;;;;10.77;4.40;;;8.10;99.90;;;;;;5091892;28;20814;-72
2024/01/06 03:44:41;;;;;;;7.85;3.88;;;8.10;99.90;;;;;;5091944;28;20028;-72
2024/01/06 03:47:06;;;;;;;8.77;3.10;;;8.10;99.90;;;;;;5092208;28;20042;-72
2024/01/06 03:49:32;;;;;;;11.13;3.35;;;8.00;99.90;;;;;;5092062;28;20020;-73
2024/01/06 03:51:58;;;;;;;10.85;3.08;;;8.00;99.90;;;;;;5092102;28;20036;-72
2024/01/06 03:54:23;;;;;;;10.55;3.80;;;8.00;99.90;;;;;;5092080;28;20063;-72
2024/01/06 03:56:49;;;;;;;11.15;3.75;;;8.00;99.90;;;;;;5092054;28;20024;-73
2024/01/06 03:59:15;;;;;;;9.13;3.63;;;8.00;99.90;;;;;;5092144;28;20036;-72
2024/01/06 04:01:41;;;;;;;7.82;3.08;;;8.00;99.90;;;;;;5092120;28;20025;-72
2024/01/06 04:04:07;;;;;;;9.00;3.28;;;8.00;99.90;;;;;;5091938;28;20443;-72
2024/01/06 04:06:32;;;;;;;7.90;3.08;;;8.10;99.90;;;;;;5092251;28;20521;-73
2024/01/06 04:08:58;;;;;;;11.65;3.03;;;8.10;99.90;;;;;;5091852;28;20020;-72
2024/01/06 04:11:24;;;;;;;10.30;2.70;;;8.10;99.90;;;;;;5091833;28;20401;-73
2024/01/06 04:13:50;;;;;;;9.57;2.60;;;8.00;99.90;;;;;;5092056;28;20028;-72
2024/01/06 04:16:15;;;;;;;12.60;2.97;;;8.00;99.90;;;;;;5091791;28;20524;-73
2024/01/06 04:18:41;;;;;;;13.60;2.67;;;8.00;99.90;;;;;;5091846;28;20020;-73
2024/01/06 04:21:08;;;;;;;10.27;2.33;;;8.00;99.90;;;;;;5091991;28;20390;-73
2024/01/06 04:23:34;;;;;;;15.73;2.80;;;8.00;99.90;;;;;;5091568;28;20023;-73
2024/01/06 04:26:01;;;;;;;11.82;2.92;;;8.00;99.90;;;;;;5091621;28;20040;-72
2024/01/06 04:28:27;;;;;;;16.05;3.20;;;8.00;99.90;;;;;;5091829;28;20390;-73
2024/01/06 04:30:53;;;;;;;12.88;2.67;;;8.00;99.90;;;;;;5091484;28;20040;-72
2024/01/06 04:33:18;;;;;;;9.68;2.72;;;8.00;99.90;;;;;;5095591;28;20022;-72
2024/01/06 04:35:44;;;;;;;10.30;2.22;;;8.10;99.90;;;;;;5095427;28;20036;-72
2024/01/06 04:38:10;;;;;;;10.35;2.25;;;8.40;99.90;;;;;;5095723;28;20062;-72
2024/01/06 04:40:36;;;;;;;9.80;2.35;;;8.70;99.90;;;;;;5095259;28;20097;-72
2024/01/06 04:43:01;;;;;;;10.15;2.35;;;8.90;99.90;;;;;;5094946;28;20031;-71
2024/01/06 04:45:27;;;;;;;8.57;2.15;;;8.90;99.90;;;;;;5095558;28;20052;-72
2024/01/06 04:47:53;;;;;;;10.38;2.42;;;9.00;99.90;;;;;;5095351;28;20394;-72
2024/01/06 04:50:18;;;;;;;5.05;1.80;;;9.10;99.90;;;;;;5095243;28;20063;-72
2024/01/06 04:52:44;;;;;;;6.20;2.10;;;9.00;99.90;;;;;;5095083;28;20542;-73
2024/01/06 04:55:10;;;;;;;5.18;1.70;;;9.00;99.90;;;;;;5095722;28;20383;-72
2024/01/06 04:57:37;;;;;;;8.55;1.75;;;9.00;99.90;;;;;;5094673;28;20382;-72
2024/01/06 05:00:03;;;;;;;7.05;1.85;;;9.00;99.90;;;;;;5095137;28;20035;-73
2024/01/06 05:02:29;;;;;;;6.35;1.80;;;8.90;99.90;;;;;;5095043;28;20024;-73
2024/01/06 05:04:55;;;;;;;7.82;2.00;;;8.80;99.90;;;;;;5094907;28;20027;-73
2024/01/06 05:07:21;;;;;;;4.38;1.75;;;8.70;99.90;;;;;;5094777;28;20101;-72
2024/01/06 05:09:47;;;;;;;4.65;1.90;;;8.60;99.90;;;;;;5094747;28;20587;-73
2024/01/06 05:12:12;;;;;;;6.35;1.83;;;8.60;99.90;;;;;;5094506;28;20106;-73
2024/01/06 05:14:38;;;;;;;5.55;1.95;;;8.50;99.90;;;;;;5094636;28;20371;-73
2024/01/06 05:17:04;;;;;;;4.03;1.80;;;8.50;99.90;;;;;;5095078;28;20031;-73
2024/01/06 05:19:30;;;;;;;5.80;1.80;;;8.40;99.90;;;;;;5094554;28;20056;-72
2024/01/06 05:21:56;;;;;;;4.18;1.80;;;8.40;99.90;;;;;;5094875;28;20020;-73
2024/01/06 05:24:23;;;;;;;6.88;1.90;;;8.40;99.90;;;;;;5094632;28;20034;-72
2024/01/06 05:26:48;;;;;;;5.90;1.92;;;8.30;99.90;;;;;;5094534;28;20020;-72
2024/01/06 05:29:14;;;;;;;7.43;1.98;;;8.30;99.90;;;;;;5094179;28;20024;-72
2024/01/06 05:31:40;;;;;;;5.03;1.67;;;8.30;99.90;;;;;;5094625;28;20046;-72
2024/01/06 05:34:05;;;;;;;5.10;1.85;;;8.30;99.90;;;;;;5094356;28;20020;-72
2024/01/06 05:36:31;;;;;;;4.03;2.00;;;8.30;99.90;;;;;;5094310;28;20024;-72
2024/01/06 05:38:57;;;;;;;5.57;1.90;;;8.30;99.90;;;;;;5094271;28;20021;-73
2024/01/06 05:41:23;;;;;;;4.90;1.80;;;8.30;99.90;;;;;;5093815;28;20032;-73
2024/01/06 05:43:48;;;;;;;4.28;1.80;;;8.30;99.90;;;;;;5093850;28;20066;-72
2024/01/06 05:46:21;;;;;;;4.90;1.80;;;8.30;99.90;;;;;;5093946;28;20079;-72
2024/01/06 05:48:47;;;;;;;6.50;2.08;;;8.30;99.90;;;;;;5094153;28;20424;-73
2024/01/06 05:51:13;;;;;;;4.40;1.58;;;8.30;99.90;;;;;;5094312;28;20077;-72
2024/01/06 05:53:38;;;;;;;5.53;2.00;;;8.20;99.90;;;;;;5093634;28;20052;-72
2024/01/06 05:56:04;;;;;;;4.45;1.77;;;8.20;99.90;;;;;;5093957;28;20077;-73
2024/01/06 05:58:29;;;;;;;5.07;1.65;;;8.20;99.90;;;;;;5092685;28;20027;-72
2024/01/06 06:00:55;;;;;;;7.68;1.70;;;8.20;99.90;;;;;;5093007;28;20417;-73
2024/01/06 06:03:21;;;;;;;8.93;1.98;;;8.20;99.90;;;;;;5093777;28;20024;-73
2024/01/06 06:05:46;;;;;;;3.65;1.65;;;8.20;99.90;;;;;;5093663;28;20036;-73
2024/01/06 06:08:12;;;;;;;4.20;1.55;;;8.20;99.90;;;;;;5093309;28;20016;-73
2024/01/06 06:10:41;;;;;;;5.63;2.25;;;8.20;99.90;;;;;;5093520;28;20024;-73
2024/01/06 06:13:11;;;;;;;6.32;2.00;;;8.20;99.90;;;;;;5093619;28;20059;-73
2024/01/06 06:15:36;;;;;;;6.38;2.00;;;8.20;99.90;;;;;;5093529;28;20036;-73
2024/01/06 06:18:02;;;;;;;5.90;2.22;;;8.20;99.90;;;;;;5093508;28;20073;-73
2024/01/06 06:20:28;;;;;;;4.60;2.00;;;8.20;99.90;;;;;;5093762;28;20043;-73
2024/01/06 06:22:53;;;;;;;10.18;2.13;;;8.20;99.90;;;;;;5093042;28;20099;-73
2024/01/06 06:25:19;;;;;;;5.63;1.88;;;8.10;99.90;;;;;;5093628;28;20066;-73
2024/01/06 06:27:44;;;;;;;4.78;1.80;;;8.10;99.90;;;;;;5093552;28;20401;-73
2024/01/06 06:30:10;;;;;;;6.95;2.30;;;8.10;99.90;;;;;;5093136;28;20054;-73
2024/01/06 06:32:36;;;;;;;6.97;2.53;;;8.00;99.90;;;;;;5093159;28;20064;-72
2024/01/06 06:35:02;;;;;;;6.72;2.72;;;8.20;99.90;;;;;;5093035;28;20063;-72
2024/01/06 06:37:28;;;;;;;5.63;2.55;;;8.50;99.90;;;;;;5092828;28;20827;-72
2024/01/06 06:39:54;;;;;;;5.40;2.30;;;8.60;99.90;;;;;;5093187;28;20036;-72
2024/01/06 06:42:19;;;;;;;4.75;2.25;;;8.70;99.90;;;;;;5092795;28;20505;-72
2024/01/06 06:44:45;;;;;;;5.38;2.15;;;8.70;99.90;;;;;;5092732;28;20382;-71
2024/01/06 06:47:10;;;;;;;7.38;2.17;;;8.60;99.90;;;;;;5093237;28;20028;-72
2024/01/06 06:49:36;;;;;;;6.13;2.20;;;8.60;99.90;;;;;;5093165;28;20490;-73
2024/01/06 06:52:03;;;;;;;9.38;2.40;;;8.50;99.90;;;;;;5074521;28;20511;-73
2024/01/06 06:54:29;;;;;;;4.60;2.03;;;8.20;99.90;;;;;;5092399;28;20351;-73
2024/01/06 06:56:54;;;;;;;3.67;2.10;;;8.00;99.90;;;;;;5092601;28;20031;-72
2024/01/06 06:59:20;;;;;;;5.53;2.20;;;7.80;99.90;;;;;;5093158;28;20035;-72
2024/01/06 07:01:46;;;;;;;4.32;1.98;;;7.80;99.90;;;;;;5091598;28;20038;-72
2024/01/06 07:04:12;;;;;;;7.18;2.30;;;7.70;99.90;;;;;;5092606;28;20371;-72
2024/01/06 07:06:37;;;;;;;7.60;2.10;;;7.70;99.90;;;;;;5092672;28;20099;-73
2024/01/06 07:09:04;;;;;;;4.88;2.30;;;7.60;99.90;;;;;;5092512;28;20020;-73
2024/01/06 07:11:30;;;;;;;5.82;2.03;;;7.60;99.90;;;;;;5092667;28;20074;-73
2024/01/06 07:13:56;;;;;;;5.85;2.22;;;7.50;99.90;;;;;;5092582;28;20044;-72
2024/01/06 07:16:21;;;;;;;5.93;2.17;;;7.40;99.90;;;;;;5092578;28;20035;-73
2024/01/06 07:18:47;;;;;;;4.47;2.00;;;7.50;99.90;;;;;;5092964;28;20256;-73
2024/01/06 07:21:13;;;;;;;5.88;1.98;;;7.40;99.90;;;;;;5092210;28;20430;-72
2024/01/06 07:23:39;;;;;;;5.72;2.10;;;7.30;99.90;;;;;;5092541;28;20016;-72
2024/01/06 07:26:05;;;;;;;4.57;2.15;;;7.20;99.90;;;;;;5092740;28;20028;-72
2024/01/06 07:28:31;;;;;;;5.25;1.98;;;7.10;99.90;;;;;;5092544;28;20088;-72
2024/01/06 07:30:56;;;;;;;4.75;2.03;;;7.10;99.90;;;;;;5092100;28;20036;-72
2024/01/06 07:33:22;;;;;;;5.28;2.10;;;7.20;99.90;;;;;;5092219;28;20440;-73
2024/01/06 07:35:48;;;;;;;7.25;2.28;;;7.20;99.90;;;;;;5091973;28;20047;-72
2024/01/06 07:38:13;;;;;;;6.78;2.40;;;7.20;99.90;;;;;;5092153;28;20469;-73
2024/01/06 07:40:40;;;;;;;5.40;2.05;;;7.20;99.90;;;;;;5092365;28;20457;-72
2024/01/06 07:43:06;;;;;;;5.82;2.25;;;7.20;99.90;;;;;;5092234;28;20020;-73
2024/01/06 07:45:32;;;;;;;7.32;2.00;;;7.10;99.90;;;;;;5091854;28;20463;-72
2024/01/06 07:47:58;;;;;;;5.40;2.10;;;7.00;99.90;;;;;;5092109;28;20024;-73
2024/01/06 07:50:24;;;;;;;5.53;2.22;;;7.00;99.90;;;;;;5091745;28;20509;-72
2024/01/06 07:52:49;;;;;;;5.65;2.20;;;6.90;99.90;;;;;;5091909;28;20040;-73
2024/01/06 07:55:15;;;;;;;5.32;2.10;;;7.00;99.90;;;;;;5092474;28;20443;-72
2024/01/06 07:57:42;;;;;;;5.32;2.13;;;7.20;99.90;;;;;;5091911;28;20600;-73
2024/01/06 08:00:08;;;;;;;5.57;2.10;;;7.10;99.90;;;;;;5091882;28;20023;-72
2024/01/06 08:02:33;;;;;;;6.47;2.28;;;7.20;99.90;;;;;;5091946;28;20024;-73
2024/01/06 08:04:59;;;;;;;5.82;2.40;;;7.30;99.90;;;;;;5091672;28;20036;-72
2024/01/06 08:07:25;;;;;;;7.72;2.33;;;7.20;99.90;;;;;;5096425;28;20024;-73
2024/01/06 08:09:50;;;;;;;7.20;2.70;;;7.30;99.90;;;;;;5095945;28;20523;-72
2024/01/06 08:12:16;;;;;;;8.00;2.72;;;7.20;99.90;;;;;;5096004;28;20110;-72
2024/01/06 08:14:42;;;;;;;6.90;2.75;;;7.30;99.90;;;;;;5096126;28;20393;-73
2024/01/06 08:17:07;;;;;;;4.65;2.35;;;7.30;99.90;;;;;;5095863;28;20049;-73
2024/01/06 08:19:33;;;;;;;6.47;2.38;;;7.30;99.90;;;;;;5095496;28;20020;-73
2024/01/06 08:21:59;;;;;;;7.00;2.70;;;7.30;99.90;;;;;;5095770;28;20056;-73
2024/01/06 08:24:24;;;;;;;8.18;4.35;;;7.40;99.90;;;;;;5095736;28;20052;-73
2024/01/06 08:26:50;;;;;;;10.95;5.97;;;7.40;99.90;;;;;;5096025;28;20024;-73
2024/01/06 08:29:19;;;;;;;7.28;6.00;;;7.30;99.90;;;;;;5095554;28;20390;-72
2024/01/06 08:31:44;;;;;;;8.80;6.32;;;7.30;99.90;;;;;;5095336;28;20032;-72
2024/01/06 08:34:10;;;;;;;14.07;9.35;;;7.30;99.90;;;;;;5095171;28;20032;-72
2024/01/06 08:36:36;;;;;;;21.55;16.17;;;7.50;99.90;;;;;;5095741;28;20095;-72
2024/01/06 08:39:02;;;;;;;23.98;18.40;;;7.70;99.90;;;;;;5095469;28;20043;-72
2024/01/06 08:41:27;;;;;;;29.00;18.85;;;7.90;99.90;;;;;;5095179;28;20016;-73
2024/01/06 08:43:54;;;;;;;25.38;19.45;;;7.90;99.90;;;;;;5095211;28;20114;-73
2024/01/06 08:46:19;;;;;;;21.98;15.90;;;8.10;99.90;;;;;;5095517;28;20517;-73
2024/01/06 08:48:45;;;;;;;17.13;13.23;;;8.10;99.90;;;;;;5094839;28;20024;-72
2024/01/06 08:51:11;;;;;;;15.52;12.02;;;8.10;99.90;;;;;;5095182;28;20032;-73
2024/01/06 08:53:36;;;;;;;14.65;10.50;;;8.10;99.90;;;;;;5095167;28;20039;-73
2024/01/06 08:56:03;;;;;;;13.00;9.65;;;8.10;99.90;;;;;;5094925;28;20479;-73
2024/01/06 08:58:29;;;;;;;11.50;9.00;;;8.10;99.90;;;;;;5095125;28;20024;-73
2024/01/06 09:00:55;;;;;;;10.93;7.78;;;8.00;99.90;;;;;;5095012;28;20036;-73
2024/01/06 09:03:25;;;;;;;8.93;6.47;;;8.10;99.90;;;;;;5094975;28;20073;-73
2024/01/06 09:05:52;;;;;;;7.25;5.78;;;8.10;99.90;;;;;;5094921;28;20043;-72
2024/01/06 09:08:18;;;;;;;7.00;3.92;;;8.10;99.90;;;;;;5094783;28;20535;-72
2024/01/06 09:10:44;;;;;;;7.20;3.42;;;8.20;99.90;;;;;;5094730;28;20118;-73
2024/01/06 09:13:10;;;;;;;6.38;3.38;;;8.20;99.90;;;;;;5094832;28;20098;-73
2024/01/06 09:15:35;;;;;;;8.30;3.10;;;8.20;99.90;;;;;;5094699;28;20047;-73
2024/01/06 09:18:02;;;;;;;9.85;2.88;;;8.20;99.90;;;;;;5093978;28;20043;-73
2024/01/06 09:20:28;;;;;;;9.88;2.53;;;8.20;99.90;;;;;;5094886;28;20024;-73
2024/01/06 09:22:54;;;;;;;7.00;2.50;;;8.20;99.90;;;;;;5094624;28;20452;-73
2024/01/06 09:25:19;;;;;;;9.85;2.40;;;8.20;99.90;;;;;;5094500;28;20356;-73
2024/01/06 09:27:45;;;;;;;7.55;2.20;;;8.20;99.90;;;;;;5094818;28;20024;-73
2024/01/06 09:30:11;;;;;;;9.00;2.25;;;8.10;99.90;;;;;;5094478;28;20059;-72
2024/01/06 09:32:37;;;;;;;8.75;2.25;;;8.10;99.90;;;;;;5094061;28;20134;-73
2024/01/06 09:35:03;;;;;;;6.07;1.92;;;8.10;99.90;;;;;;5094516;28;20024;-73
2024/01/06 09:37:29;;;;;;;6.00;1.80;;;8.20;99.90;;;;;;5094436;28;20032;-73
2024/01/06 09:39:55;;;;;;;5.93;2.15;;;8.20;99.90;;;;;;5094741;28;20031;-73
2024/01/06 09:42:20;;;;;;;6.65;2.10;;;8.30;99.90;;;;;;5093883;28;20061;-72
2024/01/06 09:44:46;;;;;;;6.82;2.40;;;8.30;99.90;;;;;;5094103;28;20489;-72
2024/01/06 09:47:12;;;;;;;7.30;2.42;;;8.30;99.90;;;;;;5094204;28;20039;-72
2024/01/06 09:49:41;;;;;;;6.50;2.50;;;8.30;99.90;;;;;;5094088;28;20024;-73
2024/01/06 09:52:14;;;;;;;6.10;2.28;;;8.30;99.90;;;;;;5093849;28;20085;-72
2024/01/06 09:54:43;;;;;;;5.47;2.13;;;8.40;99.90;;;;;;5093980;28;20556;-73
2024/01/06 09:57:09;;;;;;;4.05;2.17;;;8.40;99.90;;;;;;5094353;28;20032;-73
2024/01/06 09:59:36;;;;;;;7.50;2.83;;;8.50;99.90;;;;;;5093724;28;20028;-73
2024/01/06 10:02:04;;;;;;;7.20;2.63;;;8.60;99.90;;;;;;5093885;28;20020;-73
2024/01/06 10:04:30;;;;;;;5.53;2.10;;;8.60;99.90;;;;;;5093663;28;20036;-73
2024/01/06 10:06:56;;;;;;;7.50;2.80;;;8.70;99.90;;;;;;5093780;28;20021;-73
2024/01/06 10:09:28;;;;;;;7.82;2.72;;;8.70;99.90;;;;;;5093854;28;20028;-72
2024/01/06 10:11:58;;;;;;;10.45;2.33;;;8.80;99.90;;;;;;5093831;28;20039;-73
2024/01/06 10:14:24;;;;;;;7.03;2.42;;;8.90;99.90;;;;;;5094002;28;20490;-73
2024/01/06 10:16:53;;;;;;;5.82;2.47;;;8.90;99.90;;;;;;5093199;28;20034;-73
2024/01/06 10:19:20;;;;;;;5.22;2.40;;;8.90;99.90;;;;;;5093518;28;20027;-73
2024/01/06 10:21:45;;;;;;;5.93;2.42;;;8.90;99.90;;;;;;5093611;28;20081;-73
2024/01/06 10:24:11;;;;;;;7.63;2.42;;;8.90;99.90;;;;;;5093379;28;20020;-73
2024/01/06 10:26:38;;;;;;;5.28;2.47;;;8.90;99.90;;;;;;5093393;28;20028;-73
2024/01/06 10:29:04;;;;;;;7.28;2.83;;;8.90;99.90;;;;;;5092234;28;20448;-72
2024/01/06 10:31:30;;;;;;;5.38;2.40;;;8.90;99.90;;;;;;5092875;28;20043;-72
2024/01/06 10:33:56;;;;;;;7.40;2.70;;;8.90;99.90;;;;;;5093702;28;20062;-72
2024/01/06 10:36:26;;;;;;;8.75;3.30;;;9.10;99.90;;;;;;5093413;28;20032;-72
2024/01/06 10:38:52;;;;;;;6.20;3.10;;;9.20;99.90;;;;;;5091943;28;20028;-72
2024/01/06 10:41:20;;;;;;;6.55;3.25;;;9.40;99.90;;;;;;5091885;28;20024;-72
2024/01/06 10:43:47;;;;;;;8.65;3.10;;;9.60;99.90;;;;;;5092792;28;20442;-72
2024/01/06 10:46:15;;;;;;;8.18;3.10;;;9.60;99.90;;;;;;5093200;28;20055;-72
2024/01/06 10:48:42;;;;;;;8.30;4.10;;;9.90;99.90;;;;;;5092888;28;20462;-72
2024/01/06 10:51:13;;;;;;;8.32;3.67;;;9.90;99.90;;;;;;5093078;28;20032;-72
2024/01/06 10:53:41;;;;;;;9.52;3.90;;;10.00;99.90;;;;;;5092857;28;20032;-72
2024/01/06 10:56:10;;;;;;;11.57;4.00;;;9.90;99.90;;;;;;5092849;28;20427;-72
2024/01/06 10:58:42;;;;;;;11.68;4.55;;;9.80;99.90;;;;;;5092909;28;20027;-72
2024/01/06 11:01:09;;;;;;;12.00;4.72;;;9.60;99.90;;;;;;5092969;28;20039;-72
2024/01/06 11:03:37;;;;;;;10.82;4.80;;;9.40;99.90;;;;;;5092660;28;20016;-71
2024/01/06 11:06:05;;;;;;;11.43;4.00;;;9.10;99.90;;;;;;5092747;28;20032;-71
2024/01/06 11:08:35;;;;;;;9.07;3.38;;;9.00;99.90;;;;;;5092971;28;20048;-72
2024/01/06 11:11:02;;;;;;;8.18;3.13;;;8.90;99.90;;;;;;5091133;28;20032;-72
2024/01/06 11:13:28;;;;;;;9.45;3.00;;;8.80;99.90;;;;;;5092157;28;20112;-72
2024/01/06 11:15:54;;;;;;;10.80;4.35;;;8.70;99.90;;;;;;5092904;28;20055;-72
2024/01/06 11:18:33;;;;;;;10.07;3.90;;;8.70;99.90;;;;;;5092497;28;20153;-72
2024/01/06 11:21:14;;;;;;;12.55;4.45;;;8.70;99.90;;;;;;5092357;28;20024;-72
2024/01/06 11:23:40;;;;;;;10.63;4.45;;;8.70;99.90;;;;;;5092182;28;20035;-72
2024/01/06 11:26:09;;;;;;;12.57;5.15;;;8.80;99.90;;;;;;5092233;28;20034;-72
2024/01/06 11:28:47;;;;;;;13.98;4.30;;;8.90;99.90;;;;;;5092050;28;20032;-72
2024/01/06 11:31:13;;;;;;;18.83;4.03;;;9.00;99.90;;;;;;5092325;28;20034;-72
2024/01/06 11:33:48;;;;;;;13.25;3.50;;;9.00;99.90;;;;;;5092158;28;20027;-72
2024/01/06 11:36:15;;;;;;;9.63;2.83;;;9.10;99.90;;;;;;5092686;28;20100;-72
2024/01/06 11:38:41;;;;;;;9.23;2.78;;;9.20;99.90;;;;;;5092062;28;20020;-72
2024/01/06 11:41:30;;;;;;;7.55;2.88;;;9.20;99.90;;;;;;5091569;28;20043;-72
2024/01/06 11:43:56;;;;;;;7.22;2.78;;;9.30;99.90;;;;;;5091679;28;20038;-72
2024/01/06 11:46:21;;;;;;;5.82;2.70;;;9.30;99.90;;;;;;5091923;28;20052;-72
2024/01/06 11:48:51;;;;;;;5.63;2.30;;;9.40;99.90;;;;;;5092092;28;20024;-72
2024/01/06 11:51:18;;;;;;;8.40;2.78;;;9.40;99.90;;;;;;5091991;28;20040;-72
2024/01/06 11:53:45;;;;;;;8.32;2.60;;;9.40;99.90;;;;;;5091925;28;20367;-72
2024/01/06 11:56:11;;;;;;;6.28;2.55;;;9.50;99.90;;;;;;5091898;28;20404;-71
2024/01/06 11:58:40;;;;;;;5.60;2.30;;;9.50;99.90;;;;;;5092398;28;20095;-72
2024/01/06 12:01:05;;;;;;;7.75;2.70;;;9.60;99.90;;;;;;5092082;28;20442;-72
2024/01/06 12:03:31;;;;;;;7.97;2.63;;;9.70;99.90;;;;;;5092007;28;20055;-72
2024/01/06 12:06:04;;;;;;;12.15;3.55;;;9.80;99.90;;;;;;5092017;28;20031;-72
2024/01/06 12:08:29;;;;;;;7.30;2.17;;;9.80;99.90;;;;;;5091808;28;20024;-72
2024/01/06 12:11:07;;;;;;;6.40;2.40;;;9.70;99.90;;;;;;5091423;28;20119;-72
2024/01/06 12:13:33;;;;;;;8.85;2.25;;;9.70;99.90;;;;;;5092092;28;20024;-72
2024/01/06 12:15:59;;;;;;;8.68;2.60;;;9.70;99.90;;;;;;5091913;28;20024;-72
2024/01/06 12:18:25;;;;;;;9.00;2.20;;;9.70;99.90;;;;;;5092290;28;20028;-72
2024/01/06 12:20:52;;;;;;;6.93;2.40;;;9.70;99.90;;;;;;5091680;28;20099;-72
2024/01/06 12:23:25;;;;;;;8.23;2.00;;;9.60;99.90;;;;;;5091748;28;20044;-71
2024/01/06 12:25:51;;;;;;;6.55;1.92;;;9.50;99.90;;;;;;5091552;28;20055;-71
2024/01/06 12:28:17;;;;;;;5.85;2.10;;;9.60;99.90;;;;;;5092198;28;20064;-71
2024/01/06 12:30:44;;;;;;;10.68;2.92;;;9.80;99.90;;;;;;5091626;28;20040;-71
2024/01/06 12:33:11;;;;;;;8.50;1.92;;;10.00;99.90;;;;;;5091783;28;20048;-72
2024/01/06 12:35:36;;;;;;;6.57;2.30;;;10.10;99.90;;;;;;5091557;28;20032;-71
2024/01/06 12:38:06;;;;;;;7.93;1.90;;;10.30;99.90;;;;;;5091694;28;20366;-72
2024/01/06 12:40:31;;;;;;;10.30;2.17;;;10.40;99.90;;;;;;5091243;28;20035;-71
2024/01/06 12:42:57;;;;;;;6.10;1.83;;;10.40;99.90;;;;;;5091595;28;20040;-71
2024/01/06 12:45:23;;;;;;;5.68;1.80;;;10.60;99.90;;;;;;5091632;28;20039;-72
2024/01/06 12:47:48;;;;;;;5.45;1.65;;;10.70;99.90;;;;;;5091716;28;20573;-72
2024/01/06 12:50:14;;;;;;;6.75;1.70;;;10.50;99.90;;;;;;5091442;28;20051;-72